Decoded Metar for KLFT (LAFAYETTE in LA, USA) (IATA:LFT) | Meteo·Mobile Aviation Weather
aviador You're here:

KLFT Decoded Metar

LAFAYETTE in LA, USA
Report Time2018-09-19 21:53:00
UTC Time2018-09-19 22:10:18
Flight Rules vfr VFR
Wind200° at 06 kt
W.Decomp.*RWY 22: 5.5 kt HW 2.3 kt LCW
RWY 11: 0.3 kt HW 6.0 kt RCW
W.Rank200° ranks 9
Current wind is below 200° avg. (7.2)
Visibility9999 m
Phenomena:N/A
Clouds:Few 044 Hf
Expected CloudBase > 2,800 ft AGL from Temp-Dew spread
CeilingNone
Temp32°C (ISA +17)
Dew Point25°C (67% RH)
Heat Index39.3°C
QNH1013 hPa
Density Alt2,398 ft
Elevation36 ft
Report Wrong Elevation
Raw Report
KLFT 192153Z 20006KT 10SM FEW044 32/25 A2990 RMK AO2 LTG DSNT NW
SLP124 T03220250=

Extra information for KLFT:More info

Metar Taf Metar & Taf Last 4 Metars F.Rules Stats Wind Profile Meteogram Temp Stats Airport Information Weather charts Add Link Nearby VenuesMetar ALERT Operation Metar Decoded Social comments

AIRNAV info for KLFT